| time (UTC) | temp C | wind direction | speed KPH | gust KPH | rain 1hr cm | rain 24hr cm | rain mn cm | humidity % | barometer mb |
| 20260510190611 | 22 | 48 | 3.2 | 6.4 | 0.00 | 0.00 | 0.00 | 42 | 1018.0 |
| 20260510190109 | 22 | 70 | 0.0 | 1.6 | 0.00 | 0.00 | 0.00 | 43 | 1018.2 |
| 20260510185605 | 21 | 41 | 4.8 | 4.8 | 0.00 | 0.00 | 0.00 | 43 | 1018.3 |
| 20260510185103 | 21 | 51 | 1.6 | 3.2 | 0.00 | 0.00 | 0.00 | 40 | 1018.1 |
| 20260510184600 | 21 | 67 | 4.8 | 4.8 | 0.00 | 0.00 | 0.00 | 42 | 1018.1 |
| 20260510184055 | 21 | 50 | 3.2 | 4.8 | 0.00 | 0.00 | 0.00 | 41 | 1018.0 |
| 20260510183550 | 21 | 119 | 4.8 | 9.7 | 0.00 | 0.00 | 0.00 | 42 | 1018.0 |
| 20260510183046 | 21 | 61 | 1.6 | 3.2 | 0.00 | 0.00 | 0.00 | 42 | 1018.2 |
| 20260510182544 | 21 | 19 | 3.2 | 4.8 | 0.00 | 0.00 | 0.00 | 42 | 1018.0 |
| 20260510182038 | 21 | 46 | 4.8 | 9.7 | 0.00 | 0.00 | 0.00 | 43 | 1018.1 |
| 20260510181537 | 21 | 68 | 4.8 | 6.4 | 0.00 | 0.00 | 0.00 | 39 | 1018.1 |
| 20260510181032 | 21 | 134 | 3.2 | 3.2 | 0.00 | 0.00 | 0.00 | 43 | 1017.8 |
| 20260510180529 | 21 | 25 | 8.0 | 12.9 | 0.00 | 0.00 | 0.00 | 43 | 1018.0 |
| 20260510180027 | 21 | 53 | 6.4 | 9.7 | 0.00 | 0.00 | 0.00 | 42 | 1018.0 |
| 20260510175522 | 21 | 53 | 3.2 | 4.8 | 0.00 | 0.00 | 0.00 | 44 | 1017.8 |
| 20260510175019 | 21 | 29 | 3.2 | 3.2 | 0.00 | 0.00 | 0.00 | 47 | 1017.7 |
| 20260510174516 | 20 | 52 | 1.6 | 1.6 | 0.00 | 0.00 | 0.00 | 48 | 1017.7 |
| 20260510174014 | 21 | 23 | 4.8 | 4.8 | 0.00 | 0.00 | 0.00 | 47 | 1017.8 |
| 20260510173508 | 20 | 65 | 4.8 | 9.7 | 0.00 | 0.00 | 0.00 | 47 | 1017.8 |
| 20260510173006 | 21 | 8 | 9.7 | 12.9 | 0.00 | 0.00 | 0.00 | 46 | 1018.0 |
| 20260510172501 | 21 | 9 | 6.4 | 11.3 | 0.00 | 0.00 | 0.00 | 48 | 1017.9 |
| 20260510171958 | 21 | 77 | 3.2 | 4.8 | 0.00 | 0.00 | 0.00 | 47 | 1017.8 |
| 20260510171455 | 20 | 73 | 3.2 | 4.8 | 0.00 | 0.00 | 0.00 | 49 | 1017.8 |
| 20260510170951 | 20 | 83 | 6.4 | 11.3 | 0.00 | 0.00 | 0.00 | 48 | 1017.7 |
| 20260510170448 | 20 | 57 | 8.0 | 9.7 | 0.00 | 0.00 | 0.00 | 48 | 1017.7 |
| 20260510165944 | 20 | 69 | 4.8 | 6.4 | 0.00 | 0.00 | 0.00 | 49 | 1017.8 |
| 20260510165440 | 20 | 86 | 1.6 | 3.2 | 0.00 | 0.00 | 0.00 | 50 | 1017.4 |
| 20260510164937 | 20 | 102 | 3.2 | 6.4 | 0.00 | 0.00 | 0.00 | 50 | 1018.2 |
| 20260510164434 | 20 | 61 | 3.2 | 4.8 | 0.00 | 0.00 | 0.00 | 51 | 1017.8 |
| 20260510163934 | 20 | 26 | 9.7 | 12.9 | 0.00 | 0.00 | 0.00 | 51 | 1017.4 |
| 20260510163430 | 20 | 76 | 6.4 | 14.5 | 0.00 | 0.00 | 0.00 | 52 | 1017.6 |
| 20260510162925 | 20 | 21 | 8.0 | 11.3 | 0.00 | 0.00 | 0.00 | 51 | 1017.6 |
| 20260510162423 | 19 | 74 | 4.8 | 6.4 | 0.00 | 0.00 | 0.00 | 53 | 1017.4 |
| 20260510161919 | 20 | 59 | 9.7 | 14.5 | 0.00 | 0.00 | 0.00 | 53 | 1017.3 |
| 20260510161414 | 20 | 47 | 6.4 | 6.4 | 0.00 | 0.00 | 0.00 | 54 | 1017.3 |
| 20260510160912 | 19 | 45 | 4.8 | 6.4 | 0.00 | 0.00 | 0.00 | 55 | 1017.3 |
| 20260510160409 | 19 | 357 | 8.0 | 12.9 | 0.00 | 0.00 | 0.00 | 55 | 1017.1 |
| 20260510155907 | 19 | 46 | 6.4 | 9.7 | 0.00 | 0.00 | 0.00 | 55 | 1017.2 |
| 20260510155405 | 18 | 61 | 3.2 | 3.2 | 0.00 | 0.00 | 0.00 | 56 | 1016.9 |
| 20260510154901 | 18 | 32 | 9.7 | 14.5 | 0.00 | 0.00 | 0.00 | 57 | 1016.9 |
| 20260510154357 | 18 | 38 | 6.4 | 12.9 | 0.00 | 0.00 | 0.00 | 58 | 1017.1 |
| 20260510153851 | 18 | 54 | 4.8 | 6.4 | 0.00 | 0.00 | 0.00 | 61 | 1017.0 |
| 20260510153347 | 18 | 54 | 4.8 | 4.8 | 0.00 | 0.00 | 0.00 | 63 | 1016.9 |
| 20260510152844 | 18 | 22 | 3.2 | 6.4 | 0.00 | 0.00 | 0.00 | 61 | 1017.1 |
| 20260510152342 | 18 | 22 | 1.6 | 3.2 | 0.00 | 0.00 | 0.00 | 63 | 1016.9 |
| 20260510151837 | 18 | 98 | 4.8 | 9.7 | 0.00 | 0.00 | 0.00 | 63 | 1017.1 |
| 20260510151336 | 18 | 41 | 4.8 | 4.8 | 0.00 | 0.00 | 0.00 | 63 | 1017.0 |
| 20260510150831 | 18 | 38 | 6.4 | 9.7 | 0.00 | 0.00 | 0.00 | 62 | 1016.9 |
| 20260510150327 | 18 | 2 | 3.2 | 4.8 | 0.00 | 0.00 | 0.00 | 62 | 1017.2 |
| 20260510145824 | 18 | 57 | 4.8 | 6.4 | 0.00 | 0.00 | 0.00 | 63 | 1017.2 |
| 20260510145320 | 18 | 33 | 8.0 | 9.7 | 0.00 | 0.00 | 0.00 | 63 | 1017.1 |
| 20260510144817 | 18 | 52 | 4.8 | 4.8 | 0.00 | 0.00 | 0.00 | 63 | 1016.9 |
| 20260510144313 | 18 | 355 | 6.4 | 11.3 | 0.00 | 0.00 | 0.00 | 62 | 1017.2 |
| 20260510143813 | 18 | 65 | 9.7 | 11.3 | 0.00 | 0.00 | 0.00 | 63 | 1017.4 |
| 20260510143309 | 18 | 27 | 4.8 | 4.8 | 0.00 | 0.00 | 0.00 | 63 | 1017.2 |
| 20260510142806 | 18 | 87 | 6.4 | 9.7 | 0.00 | 0.00 | 0.00 | 64 | 1016.9 |
| 20260510142306 | 18 | 8 | 9.7 | 12.9 | 0.00 | 0.00 | 0.00 | 63 | 1016.9 |
| 20260510141800 | 18 | 54 | 0.0 | 1.6 | 0.00 | 0.00 | 0.00 | 63 | 1016.7 |
| 20260510141258 | 18 | 57 | 3.2 | 3.2 | 0.00 | 0.00 | 0.00 | 64 | 1016.9 |
| 20260510140755 | 17 | 51 | 3.2 | 4.8 | 0.00 | 0.00 | 0.00 | 64 | 1016.8 |
| 20260510140250 | 17 | 49 | 3.2 | 6.4 | 0.00 | 0.00 | 0.00 | 63 | 1016.7 |
| 20260510135750 | 17 | 3 | 9.7 | 12.9 | 0.00 | 0.00 | 0.00 | 62 | 1016.6 |
| 20260510135245 | 17 | 64 | 3.2 | 4.8 | 0.00 | 0.00 | 0.00 | 65 | 1016.4 |
| 20260510134743 | 17 | 50 | 1.6 | 3.2 | 0.00 | 0.00 | 0.00 | 67 | 1016.3 |
| 20260510134240 | 17 | 36 | 6.4 | 6.4 | 0.00 | 0.00 | 0.00 | 68 | 1016.2 |
| 20260510133736 | 17 | 56 | 9.7 | 16.1 | 0.00 | 0.00 | 0.00 | 68 | 1016.1 |
| 20260510133232 | 17 | 27 | 6.4 | 6.4 | 0.00 | 0.00 | 0.00 | 70 | 1016.0 |
| 20260510132728 | 17 | 62 | 1.6 | 3.2 | 0.00 | 0.00 | 0.00 | 72 | 1016.0 |
| 20260510132226 | 16 | 44 | 3.2 | 4.8 | 0.00 | 0.00 | 0.00 | 74 | 1016.0 |
| 20260510131723 | 16 | 0 | 4.8 | 9.7 | 0.00 | 0.00 | 0.00 | 73 | 1015.8 |
| 20260510131221 | 16 | 46 | 3.2 | 4.8 | 0.00 | 0.00 | 0.00 | 74 | 1015.6 |
| 20260510130717 | 16 | 80 | 4.8 | 9.7 | 0.00 | 0.00 | 0.00 | 74 | 1015.5 |
| 20260510130214 | 16 | 64 | 3.2 | 11.3 | 0.00 | 0.00 | 0.00 | 74 | 1015.3 |
| 20260510125710 | 16 | 41 | 3.2 | 4.8 | 0.00 | 0.00 | 0.00 | 73 | 1015.4 |
| 20260510125206 | 16 | 22 | 4.8 | 6.4 | 0.00 | 0.00 | 0.00 | 73 | 1015.4 |
| 20260510124703 | 16 | 69 | 6.4 | 11.3 | 0.00 | 0.00 | 0.00 | 73 | 1015.5 |
| 20260510124201 | 16 | 90 | 3.2 | 9.7 | 0.00 | 0.00 | 0.00 | 73 | 1015.2 |
| 20260510123655 | 16 | 67 | 3.2 | 4.8 | 0.00 | 0.00 | 0.00 | 72 | 1015.3 |
| 20260510123152 | 16 | 30 | 4.8 | 4.8 | 0.00 | 0.00 | 0.00 | 71 | 1015.3 |
| 20260510122648 | 16 | 49 | 1.6 | 3.2 | 0.00 | 0.00 | 0.00 | 71 | 1015.3 |
| 20260510122144 | 16 | 71 | 3.2 | 4.8 | 0.00 | 0.00 | 0.00 | 70 | 1015.2 |
| 20260510121641 | 16 | 60 | 1.6 | 1.6 | 0.00 | 0.00 | 0.00 | 69 | 1015.1 |
| 20260510121138 | 16 | 59 | 0.0 | 0.0 | 0.00 | 0.00 | 0.00 | 68 | 1015.0 |
| 20260510120636 | 16 | 41 | 1.6 | 3.2 | 0.00 | 0.00 | 0.00 | 67 | 1015.2 |
| 20260510120131 | 16 | 79 | 0.0 | 0.0 | 0.00 | 0.00 | 0.00 | 66 | 1015.0 |
| 20260510115628 | 16 | 65 | 0.0 | 1.6 | 0.00 | 0.00 | 0.00 | 65 | 1015.0 |
| 20260510115126 | 16 | 58 | 4.8 | 6.4 | 0.00 | 0.00 | 0.00 | 63 | 1014.9 |
| 20260510114621 | 16 | 46 | 1.6 | 3.2 | 0.00 | 0.00 | 0.00 | 63 | 1014.7 |
| 20260510114118 | 17 | 65 | 0.0 | 0.0 | 0.00 | 0.00 | 0.00 | 63 | 1014.5 |
| 20260510113613 | 17 | 71 | 0.0 | 0.0 | 0.00 | 0.00 | 0.00 | 62 | 1014.7 |
| 20260510113111 | 17 | 45 | 1.6 | 3.2 | 0.00 | 0.00 | 0.00 | 61 | 1014.7 |
| 20260510112607 | 16 | 83 | 1.6 | 3.2 | 0.00 | 0.00 | 0.00 | 61 | 1014.6 |
| 20260510112104 | 16 | 71 | 0.0 | 0.0 | 0.00 | 0.00 | 0.00 | 62 | 1014.5 |
| 20260510111600 | 16 | 72 | 0.0 | 0.0 | 0.00 | 0.00 | 0.00 | 67 | 1014.5 |
| 20260510111056 | 15 | 59 | 0.0 | 0.0 | 0.00 | 0.00 | 0.00 | 72 | 1014.5 |
| 20260510110552 | 15 | 71 | 0.0 | 0.0 | 0.00 | 0.00 | 0.00 | 73 | 1014.2 |
| 20260510110049 | 15 | 64 | 0.0 | 0.0 | 0.00 | 0.00 | 0.00 | 72 | 1014.3 |
| 20260510105544 | 15 | 77 | 0.0 | 0.0 | 0.00 | 0.00 | 0.00 | 70 | 1014.1 |
| 20260510105039 | 15 | 70 | 0.0 | 0.0 | 0.00 | 0.00 | 0.00 | 70 | 1014.0 |
| 20260510104536 | 15 | 74 | 0.0 | 0.0 | 0.00 | 0.00 | 0.00 | 71 | 1013.9 |
| 20260510104032 | 15 | 75 | 0.0 | 0.0 | 0.00 | 0.00 | 0.00 | 73 | 1014.0 |
| 20260510103530 | 15 | 75 | 0.0 | 0.0 | 0.00 | 0.00 | 0.00 | 77 | 1013.9 |
| 20260510103026 | 15 | 73 | 0.0 | 0.0 | 0.00 | 0.00 | 0.00 | 75 | 1013.8 |
| 20260510102522 | 15 | 73 | 0.0 | 0.0 | 0.00 | 0.00 | 0.00 | 73 | 1014.0 |
| 20260510102018 | 15 | 74 | 0.0 | 0.0 | 0.00 | 0.00 | 0.00 | 71 | 1013.9 |
| 20260510101516 | 15 | 76 | 0.0 | 0.0 | 0.00 | 0.00 | 0.00 | 72 | 1013.8 |
| 20260510101014 | 15 | 74 | 0.0 | 0.0 | 0.00 | 0.00 | 0.00 | 73 | 1013.5 |
| 20260510100510 | 15 | 73 | 0.0 | 0.0 | 0.00 | 0.00 | 0.00 | 74 | 1013.5 |
| 20260510100007 | 15 | 73 | 0.0 | 0.0 | 0.00 | 0.00 | 0.00 | 75 | 1013.6 |
| 20260510095503 | 15 | 74 | 0.0 | 0.0 | 0.00 | 0.00 | 0.00 | 75 | 1013.3 |
| 20260510095002 | 15 | 73 | 0.0 | 0.0 | 0.00 | 0.00 | 0.00 | 75 | 1013.3 |
| 20260510094457 | 15 | 73 | 0.0 | 0.0 | 0.00 | 0.00 | 0.00 | 74 | 1013.2 |
| 20260510093953 | 15 | 72 | 0.0 | 0.0 | 0.00 | 0.00 | 0.00 | 74 | 1013.3 |
| 20260510093449 | 15 | 72 | 0.0 | 0.0 | 0.00 | 0.00 | 0.00 | 74 | 1013.3 |
| 20260510092945 | 15 | 70 | 0.0 | 0.0 | 0.00 | 0.00 | 0.00 | 73 | 1013.3 |
| 20260510092443 | 15 | 80 | 0.0 | 0.0 | 0.00 | 0.00 | 0.00 | 74 | 1013.2 |
| 20260510091942 | 15 | 74 | 0.0 | 0.0 | 0.00 | 0.00 | 0.00 | 73 | 1013.1 |
| 20260510091440 | 15 | 72 | 0.0 | 0.0 | 0.00 | 0.00 | 0.00 | 72 | 1013.2 |
| 20260510090936 | 16 | 73 | 0.0 | 0.0 | 0.00 | 0.00 | 0.00 | 68 | 1013.1 |
| 20260510090433 | 16 | 72 | 0.0 | 0.0 | 0.00 | 0.00 | 0.00 | 70 | 1013.1 |
| 20260510085928 | 15 | 79 | 0.0 | 0.0 | 0.00 | 0.00 | 0.00 | 67 | 1012.7 |
| 20260510085424 | 15 | 81 | 0.0 | 0.0 | 0.00 | 0.00 | 0.00 | 71 | 1013.0 |
| 20260510084919 | 15 | 75 | 0.0 | 0.0 | 0.00 | 0.00 | 0.00 | 70 | 1012.9 |
| 20260510084417 | 15 | 73 | 0.0 | 0.0 | 0.00 | 0.00 | 0.00 | 72 | 1012.9 |
| 20260510083913 | 15 | 73 | 0.0 | 0.0 | 0.00 | 0.00 | 0.00 | 70 | 1013.0 |
| 20260510083409 | 15 | 73 | 0.0 | 0.0 | 0.00 | 0.00 | 0.00 | 71 | 1013.0 |
| 20260510082905 | 15 | 73 | 0.0 | 0.0 | 0.00 | 0.00 | 0.00 | 70 | 1013.0 |
| 20260510082403 | 15 | 73 | 0.0 | 0.0 | 0.00 | 0.00 | 0.00 | 70 | 1013.3 |
| 20260510081901 | 15 | 70 | 0.0 | 0.0 | 0.00 | 0.00 | 0.00 | 67 | 1012.9 |
| 20260510081358 | 15 | 77 | 0.0 | 0.0 | 0.00 | 0.00 | 0.00 | 64 | 1013.3 |
| 20260510080855 | 15 | 74 | 0.0 | 0.0 | 0.00 | 0.00 | 0.00 | 64 | 1013.2 |
| 20260510080348 | 15 | 80 | 0.0 | 0.0 | 0.00 | 0.00 | 0.00 | 65 | 1013.2 |
| 20260510075846 | 15 | 76 | 0.0 | 0.0 | 0.00 | 0.00 | 0.00 | 65 | 1013.1 |
| 20260510075344 | 15 | 77 | 0.0 | 0.0 | 0.00 | 0.00 | 0.00 | 66 | 1013.2 |
| 20260510074840 | 15 | 74 | 0.0 | 0.0 | 0.00 | 0.00 | 0.00 | 69 | 1013.2 |
| 20260510074337 | 15 | 73 | 0.0 | 0.0 | 0.00 | 0.00 | 0.00 | 67 | 1013.1 |
| 20260510073833 | 15 | 75 | 0.0 | 0.0 | 0.00 | 0.00 | 0.00 | 67 | 1013.1 |
| 20260510073329 | 15 | 77 | 0.0 | 0.0 | 0.00 | 0.00 | 0.00 | 68 | 1012.8 |
| 20260510072825 | 15 | 75 | 0.0 | 0.0 | 0.00 | 0.00 | 0.00 | 68 | 1012.7 |
| 20260510072323 | 15 | 74 | 0.0 | 0.0 | 0.00 | 0.00 | 0.00 | 69 | 1012.9 |
| 20260510071818 | 15 | 74 | 0.0 | 0.0 | 0.00 | 0.00 | 0.00 | 69 | 1013.0 |
| 20260510071315 | 15 | 72 | 0.0 | 0.0 | 0.00 | 0.00 | 0.00 | 70 | 1012.8 |
| 20260510070814 | 15 | 77 | 1.6 | 1.6 | 0.00 | 0.00 | 0.00 | 72 | 1012.9 |
| 20260510070310 | 15 | 69 | 0.0 | 0.0 | 0.00 | 0.00 | 0.00 | 70 | 1012.4 |
| 20260510065810 | 15 | 77 | 0.0 | 0.0 | 0.00 | 0.00 | 0.00 | 70 | 1012.6 |
| 20260510065307 | 15 | 75 | 0.0 | 0.0 | 0.00 | 0.00 | 0.00 | 69 | 1012.6 |
| 20260510064804 | 15 | 75 | 0.0 | 0.0 | 0.00 | 0.00 | 0.00 | 69 | 1012.7 |
| 20260510064303 | 15 | 75 | 0.0 | 0.0 | 0.00 | 0.00 | 0.00 | 70 | 1012.9 |
| 20260510063803 | 15 | 73 | 0.0 | 0.0 | 0.00 | 0.00 | 0.00 | 69 | 1012.7 |
| 20260510063259 | 15 | 74 | 0.0 | 0.0 | 0.00 | 0.00 | 0.00 | 67 | 1012.5 |
| 20260510062756 | 15 | 76 | 0.0 | 0.0 | 0.00 | 0.00 | 0.00 | 67 | 1012.5 |
| 20260510062252 | 15 | 74 | 0.0 | 0.0 | 0.00 | 0.00 | 0.00 | 66 | 1012.5 |
| 20260510061747 | 15 | 76 | 0.0 | 0.0 | 0.00 | 0.00 | 0.00 | 64 | 1012.6 |
| 20260510061245 | 15 | 77 | 0.0 | 0.0 | 0.00 | 0.00 | 0.00 | 66 | 1012.6 |
| 20260510060741 | 15 | 75 | 0.0 | 0.0 | 0.00 | 0.00 | 0.00 | 66 | 1012.5 |
| 20260510060238 | 15 | 76 | 0.0 | 0.0 | 0.00 | 0.00 | 0.00 | 66 | 1012.5 |
| 20260510055734 | 15 | 76 | 0.0 | 0.0 | 0.00 | 0.00 | 0.00 | 68 | 1012.6 |
| 20260510055233 | 15 | 78 | 0.0 | 0.0 | 0.00 | 0.00 | 0.00 | 67 | 1012.9 |
| 20260510054732 | 15 | 76 | 0.0 | 0.0 | 0.00 | 0.00 | 0.00 | 69 | 1012.8 |
| 20260510054229 | 15 | 76 | 0.0 | 0.0 | 0.00 | 0.00 | 0.00 | 71 | 1012.7 |
| 20260510053728 | 15 | 78 | 0.0 | 0.0 | 0.00 | 0.00 | 0.00 | 71 | 1012.7 |
| 20260510053225 | 15 | 77 | 0.0 | 0.0 | 0.00 | 0.00 | 0.00 | 71 | 1012.8 |
| 20260510052720 | 16 | 75 | 0.0 | 0.0 | 0.00 | 0.00 | 0.00 | 70 | 1012.6 |
| 20260510052217 | 16 | 75 | 0.0 | 0.0 | 0.00 | 0.00 | 0.00 | 68 | 1012.6 |
| 20260510051713 | 16 | 76 | 0.0 | 0.0 | 0.00 | 0.00 | 0.00 | 67 | 1012.4 |
| 20260510051209 | 16 | 77 | 0.0 | 0.0 | 0.00 | 0.00 | 0.00 | 65 | 1012.5 |
| 20260510050707 | 16 | 79 | 0.0 | 0.0 | 0.00 | 0.00 | 0.00 | 65 | 1012.5 |
| 20260510050204 | 16 | 80 | 0.0 | 0.0 | 0.00 | 0.00 | 0.00 | 64 | 1012.6 |
| 20260510045700 | 16 | 78 | 0.0 | 0.0 | 0.00 | 0.00 | 0.00 | 63 | 1012.3 |
| 20260510045157 | 16 | 80 | 0.0 | 0.0 | 0.00 | 0.00 | 0.00 | 63 | 1012.5 |
| 20260510044653 | 17 | 80 | 0.0 | 0.0 | 0.00 | 0.00 | 0.00 | 62 | 1012.4 |
| 20260510044151 | 17 | 85 | 0.0 | 0.0 | 0.00 | 0.00 | 0.00 | 62 | 1012.5 |
| 20260510043646 | 17 | 73 | 0.0 | 0.0 | 0.00 | 0.00 | 0.00 | 60 | 1012.4 |
| 20260510043143 | 17 | 80 | 0.0 | 0.0 | 0.00 | 0.00 | 0.00 | 61 | 1012.2 |
| 20260510042641 | 17 | 80 | 0.0 | 0.0 | 0.00 | 0.00 | 0.00 | 60 | 1012.0 |
| 20260510042137 | 17 | 80 | 0.0 | 0.0 | 0.00 | 0.00 | 0.00 | 60 | 1011.8 |
| 20260510041634 | 17 | 78 | 0.0 | 0.0 | 0.00 | 0.00 | 0.00 | 61 | 1012.0 |
| 20260510041131 | 17 | 78 | 0.0 | 0.0 | 0.00 | 0.00 | 0.00 | 60 | 1011.9 |
| 20260510040628 | 17 | 78 | 0.0 | 0.0 | 0.00 | 0.00 | 0.00 | 61 | 1012.0 |
| 20260510040124 | 17 | 78 | 0.0 | 0.0 | 0.00 | 0.00 | 0.00 | 60 | 1011.9 |
| 20260510035620 | 17 | 79 | 0.0 | 0.0 | 0.00 | 0.00 | 0.00 | 60 | 1012.2 |
| 20260510035121 | 17 | 80 | 0.0 | 0.0 | 0.00 | 0.00 | 0.00 | 60 | 1011.8 |
| 20260510034618 | 17 | 78 | 0.0 | 0.0 | 0.00 | 0.00 | 0.00 | 60 | 1011.9 |
| 20260510034115 | 17 | 77 | 0.0 | 0.0 | 0.00 | 0.00 | 0.00 | 59 | 1012.0 |
| 20260510033611 | 17 | 77 | 0.0 | 0.0 | 0.00 | 0.00 | 0.00 | 59 | 1011.8 |
| 20260510033109 | 17 | 78 | 0.0 | 0.0 | 0.00 | 0.00 | 0.00 | 58 | 1012.0 |
| 20260510032605 | 17 | 79 | 0.0 | 0.0 | 0.00 | 0.00 | 0.00 | 59 | 1011.9 |
| 20260510032100 | 17 | 78 | 0.0 | 0.0 | 0.00 | 0.00 | 0.00 | 57 | 1011.8 |
| 20260510031556 | 18 | 76 | 0.0 | 0.0 | 0.00 | 0.00 | 0.00 | 57 | 1011.7 |
| 20260510031053 | 18 | 80 | 0.0 | 0.0 | 0.00 | 0.00 | 0.00 | 56 | 1011.7 |
| 20260510030547 | 18 | 77 | 0.0 | 0.0 | 0.00 | 0.00 | 0.00 | 55 | 1011.4 |
| 20260510030045 | 18 | 77 | 0.0 | 0.0 | 0.00 | 0.00 | 0.00 | 54 | 1011.3 |
| 20260510025542 | 18 | 76 | 0.0 | 0.0 | 0.00 | 0.00 | 0.00 | 54 | 1011.2 |
| 20260510025040 | 18 | 77 | 0.0 | 0.0 | 0.00 | 0.00 | 0.00 | 54 | 1011.1 |
| 20260510024536 | 18 | 77 | 0.0 | 0.0 | 0.00 | 0.00 | 0.00 | 53 | 1011.3 |
| 20260510024032 | 19 | 79 | 0.0 | 0.0 | 0.00 | 0.00 | 0.00 | 52 | 1010.9 |
| 20260510023528 | 19 | 75 | 0.0 | 0.0 | 0.00 | 0.00 | 0.00 | 52 | 1011.1 |
| 20260510023026 | 19 | 79 | 0.0 | 0.0 | 0.00 | 0.00 | 0.00 | 52 | 1010.7 |
| 20260510022525 | 19 | 78 | 0.0 | 0.0 | 0.00 | 0.00 | 0.00 | 52 | 1010.7 |
| 20260510022020 | 19 | 80 | 0.0 | 0.0 | 0.00 | 0.00 | 0.00 | 52 | 1010.6 |
| 20260510021517 | 19 | 81 | 0.0 | 0.0 | 0.00 | 0.00 | 0.00 | 53 | 1010.7 |
| 20260510021014 | 20 | 75 | 0.0 | 0.0 | 0.00 | 0.00 | 0.00 | 52 | 1010.3 |
| 20260510020508 | 20 | 76 | 0.0 | 0.0 | 0.00 | 0.00 | 0.00 | 52 | 1010.4 |
| 20260510020005 | 20 | 79 | 0.0 | 0.0 | 0.00 | 0.00 | 0.00 | 52 | 1010.3 |
| 20260510015500 | 20 | 79 | 0.0 | 0.0 | 0.00 | 0.00 | 0.00 | 52 | 1010.2 |
| 20260510014955 | 20 | 76 | 0.0 | 0.0 | 0.00 | 0.00 | 0.00 | 51 | 1010.0 |
| 20260510014454 | 20 | 81 | 0.0 | 0.0 | 0.00 | 0.00 | 0.00 | 52 | 1010.1 |
| 20260510013950 | 20 | 78 | 0.0 | 0.0 | 0.00 | 0.00 | 0.00 | 51 | 1010.0 |
| 20260510013444 | 20 | 77 | 0.0 | 0.0 | 0.00 | 0.00 | 0.00 | 50 | 1010.0 |
| 20260510012940 | 21 | 77 | 0.0 | 0.0 | 0.00 | 0.00 | 0.00 | 49 | 1010.1 |
| 20260510012435 | 21 | 78 | 0.0 | 0.0 | 0.00 | 0.00 | 0.00 | 49 | 1009.9 |
| 20260510011931 | 21 | 77 | 0.0 | 0.0 | 0.00 | 0.00 | 0.00 | 48 | 1010.1 |
| 20260510011425 | 21 | 79 | 0.0 | 0.0 | 0.00 | 0.00 | 0.00 | 48 | 1010.2 |
| 20260510010922 | 21 | 79 | 0.0 | 0.0 | 0.00 | 0.00 | 0.00 | 47 | 1009.8 |
| 20260510010419 | 21 | 78 | 0.0 | 0.0 | 0.00 | 0.00 | 0.00 | 48 | 1010.0 |
| 20260510005916 | 22 | 80 | 0.0 | 0.0 | 0.00 | 0.00 | 0.00 | 46 | 1009.6 |
| 20260510005412 | 22 | 77 | 0.0 | 0.0 | 0.00 | 0.00 | 0.00 | 46 | 1009.7 |
| 20260510004909 | 22 | 78 | 0.0 | 0.0 | 0.00 | 0.00 | 0.00 | 44 | 1009.5 |
| 20260510004407 | 23 | 80 | 0.0 | 0.0 | 0.00 | 0.00 | 0.00 | 44 | 1009.6 |
| 20260510003904 | 23 | 80 | 0.0 | 0.0 | 0.00 | 0.00 | 0.00 | 42 | 1009.5 |
| 20260510003401 | 23 | 80 | 0.0 | 0.0 | 0.00 | 0.00 | 0.00 | 40 | 1009.3 |
| 20260510002900 | 24 | 79 | 0.0 | 0.0 | 0.00 | 0.00 | 0.00 | 41 | 1009.2 |
| 20260510002358 | 25 | 79 | 0.0 | 0.0 | 0.00 | 0.00 | 0.00 | 38 | 1009.1 |
| 20260510001854 | 25 | 75 | 0.0 | 0.0 | 0.00 | 0.00 | 0.00 | 36 | 1009.2 |
| 20260510001352 | 25 | 79 | 0.0 | 0.0 | 0.00 | 0.00 | 0.00 | 36 | 1009.1 |
| 20260510000848 | 25 | 36 | 0.0 | 0.0 | 0.00 | 0.00 | 0.00 | 35 | 1009.1 |
| 20260510000348 | 25 | 93 | 0.0 | 1.6 | 0.00 | 0.00 | 0.00 | 32 | 1009.1 |
| 20260509235842 | 26 | 81 | 0.0 | 0.0 | 0.00 | 0.00 | 0.00 | 33 | 1009.2 |
| 20260509235338 | 26 | 79 | 0.0 | 0.0 | 0.00 | 0.00 | 0.00 | 32 | 1009.2 |
| 20260509234835 | 26 | 219 | 0.0 | 1.6 | 0.00 | 0.00 | 0.00 | 31 | 1009.1 |
| 20260509234332 | 26 | 82 | 0.0 | 0.0 | 0.00 | 0.00 | 0.00 | 31 | 1009.2 |
| 20260509233830 | 26 | 80 | 0.0 | 0.0 | 0.00 | 0.00 | 0.00 | 28 | 1009.2 |
| 20260509233327 | 26 | 244 | 3.2 | 3.2 | 0.00 | 0.00 | 0.00 | 27 | 1009.1 |
| 20260509232822 | 26 | 76 | 0.0 | 0.0 | 0.00 | 0.00 | 0.00 | 28 | 1008.9 |
| 20260509232321 | 27 | 71 | 0.0 | 1.6 | 0.00 | 0.00 | 0.00 | 27 | 1009.2 |
| 20260509231816 | 27 | 86 | 0.0 | 0.0 | 0.00 | 0.00 | 0.00 | 26 | 1009.0 |
| 20260509231313 | 27 | 205 | 0.0 | 0.0 | 0.00 | 0.00 | 0.00 | 27 | 1009.1 |
| 20260509230812 | 27 | 74 | 0.0 | 0.0 | 0.00 | 0.00 | 0.00 | 26 | 1009.2 |
| 20260509230308 | 27 | 101 | 0.0 | 0.0 | 0.00 | 0.00 | 0.00 | 26 | 1009.2 |
| 20260509225803 | 28 | 252 | 0.0 | 0.0 | 0.00 | 0.00 | 0.00 | 24 | 1009.2 |
| 20260509225300 | 28 | 82 | 0.0 | 0.0 | 0.00 | 0.00 | 0.00 | 24 | 1009.0 |
| 20260509224756 | 28 | 91 | 0.0 | 0.0 | 0.00 | 0.00 | 0.00 | 24 | 1009.2 |
| 20260509224253 | 28 | 48 | 0.0 | 0.0 | 0.00 | 0.00 | 0.00 | 22 | 1009.1 |
| 20260509223749 | 28 | 63 | 0.0 | 0.0 | 0.00 | 0.00 | 0.00 | 21 | 1009.2 |
| 20260509223246 | 28 | 44 | 0.0 | 0.0 | 0.00 | 0.00 | 0.00 | 22 | 1009.2 |
| 20260509222743 | 28 | 64 | 0.0 | 0.0 | 0.00 | 0.00 | 0.00 | 20 | 1009.3 |
| 20260509222239 | 29 | 47 | 1.6 | 3.2 | 0.00 | 0.00 | 0.00 | 21 | 1009.3 |
| 20260509221734 | 30 | 70 | 0.0 | 0.0 | 0.00 | 0.00 | 0.00 | 21 | 1009.0 |
| 20260509221231 | 29 | 66 | 0.0 | 0.0 | 0.00 | 0.00 | 0.00 | 23 | 1009.2 |
| 20260509220727 | 28 | 61 | 0.0 | 0.0 | 0.00 | 0.00 | 0.00 | 23 | 1009.1 |
| 20260509220223 | 30 | 45 | 3.2 | 3.2 | 0.00 | 0.00 | 0.00 | 23 | 1009.1 |
| 20260509215719 | 30 | 66 | 0.0 | 0.0 | 0.00 | 0.00 | 0.00 | 22 | 1009.1 |
| 20260509215215 | 30 | 71 | 0.0 | 0.0 | 0.00 | 0.00 | 0.00 | 23 | 1009.1 |
| 20260509214713 | 30 | 69 | 0.0 | 0.0 | 0.00 | 0.00 | 0.00 | 23 | 1009.1 |
| 20260509214210 | 30 | 293 | 1.6 | 3.2 | 0.00 | 0.00 | 0.00 | 22 | 1008.9 |
| 20260509213707 | 30 | 59 | 0.0 | 1.6 | 0.00 | 0.00 | 0.00 | 23 | 1008.9 |
| 20260509213202 | 30 | 76 | 0.0 | 1.6 | 0.00 | 0.00 | 0.00 | 23 | 1008.9 |
| 20260509212700 | 30 | 53 | 3.2 | 3.2 | 0.00 | 0.00 | 0.00 | 21 | 1008.7 |
| 20260509212157 | 30 | 72 | 0.0 | 0.0 | 0.00 | 0.00 | 0.00 | 24 | 1009.0 |
| 20260509211652 | 30 | 308 | 1.6 | 1.6 | 0.00 | 0.00 | 0.00 | 20 | 1009.2 |
| 20260509211149 | 30 | 88 | 0.0 | 0.0 | 0.00 | 0.00 | 0.00 | 23 | 1009.2 |
| 20260509210647 | 30 | 46 | 1.6 | 3.2 | 0.00 | 0.00 | 0.00 | 21 | 1009.3 |
| 20260509210144 | 29 | 64 | 1.6 | 1.6 | 0.00 | 0.00 | 0.00 | 25 | 1009.1 |
| 20260509205639 | 30 | 68 | 1.6 | 3.2 | 0.00 | 0.00 | 0.00 | 21 | 1009.5 |
| 20260509205138 | 30 | 322 | 3.2 | 4.8 | 0.00 | 0.00 | 0.00 | 23 | 1009.6 |
| 20260509204635 | 30 | 339 | 1.6 | 1.6 | 0.00 | 0.00 | 0.00 | 24 | 1009.6 |
| 20260509204131 | 30 | 85 | 0.0 | 0.0 | 0.00 | 0.00 | 0.00 | 24 | 1009.3 |
| 20260509203627 | 30 | 64 | 0.0 | 0.0 | 0.00 | 0.00 | 0.00 | 24 | 1009.5 |
| 20260509203126 | 30 | 84 | 0.0 | 1.6 | 0.00 | 0.00 | 0.00 | 22 | 1009.6 |
| 20260509202626 | 30 | 108 | 1.6 | 1.6 | 0.00 | 0.00 | 0.00 | 23 | 1009.5 |
| 20260509202121 | 30 | 64 | 0.0 | 0.0 | 0.00 | 0.00 | 0.00 | 23 | 1009.9 |
| 20260509201616 | 30 | 248 | 4.8 | 6.4 | 0.00 | 0.00 | 0.00 | 21 | 1010.0 |
| 20260509201114 | 29 | 71 | 0.0 | 0.0 | 0.00 | 0.00 | 0.00 | 24 | 1010.1 |
| 20260509200609 | 28 | 63 | 0.0 | 0.0 | 0.00 | 0.00 | 0.00 | 25 | 1010.1 |
| 20260509200105 | 28 | 2 | 0.0 | 1.6 | 0.00 | 0.00 | 0.00 | 22 | 1010.0 |
| 20260509195601 | 29 | 34 | 1.6 | 3.2 | 0.00 | 0.00 | 0.00 | 23 | 1010.1 |
| 20260509195055 | 29 | 25 | 0.0 | 0.0 | 0.00 | 0.00 | 0.00 | 22 | 1009.9 |
| 20260509194555 | 29 | 130 | 0.0 | 0.0 | 0.00 | 0.00 | 0.00 | 24 | 1010.1 |
| 20260509194053 | 29 | 234 | 4.8 | 4.8 | 0.00 | 0.00 | 0.00 | 24 | 1009.9 |
| 20260509193548 | 29 | 296 | 0.0 | 0.0 | 0.00 | 0.00 | 0.00 | 25 | 1009.9 |
| 20260509193045 | 30 | 77 | 0.0 | 0.0 | 0.00 | 0.00 | 0.00 | 25 | 1010.2 |
| 20260509192541 | 29 | 59 | 1.6 | 1.6 | 0.00 | 0.00 | 0.00 | 27 | 1010.2 |
| 20260509192036 | 29 | 45 | 3.2 | 3.2 | 0.00 | 0.00 | 0.00 | 26 | 1010.1 |
| 20260509191531 | 29 | 211 | 1.6 | 1.6 | 0.00 | 0.00 | 0.00 | 24 | 1010.2 |
| 20260509191027 | 28 | 240 | 1.6 | 6.4 | 0.00 | 0.00 | 0.00 | 26 | 1010.1 |